createdAt,value
2023-04-26T00:00:23.068Z,1010.89
2023-04-26T00:01:22.949Z,1010.89
2023-04-26T00:02:23.029Z,1010.90
2023-04-26T00:03:23.058Z,1010.90
2023-04-26T00:04:23.044Z,1010.90
2023-04-26T00:05:22.875Z,1010.89
2023-04-26T00:06:22.822Z,1010.88
2023-04-26T00:07:22.724Z,1010.89
2023-04-26T00:08:22.686Z,1010.88
2023-04-26T00:09:22.643Z,1010.91
2023-04-26T00:10:22.621Z,1010.88
2023-04-26T00:11:22.583Z,1010.91
2023-04-26T00:12:22.589Z,1010.89
2023-04-26T00:13:22.497Z,1010.86
2023-04-26T00:14:22.469Z,1010.87
2023-04-26T00:15:22.430Z,1010.86
2023-04-26T00:16:22.510Z,1010.88
2023-04-26T00:17:22.367Z,1010.86
2023-04-26T00:18:22.546Z,1010.85
2023-04-26T00:19:22.276Z,1010.86
2023-04-26T00:20:22.311Z,1010.87
2023-04-26T00:21:22.215Z,1010.82
2023-04-26T00:22:22.179Z,1010.83
2023-04-26T00:23:22.279Z,1010.82
2023-04-26T00:24:22.111Z,1010.83
2023-04-26T00:25:22.062Z,1010.85
2023-04-26T00:26:22.031Z,1010.86
2023-04-26T00:27:21.985Z,1010.87
2023-04-26T00:28:22.081Z,1010.81
2023-04-26T00:29:21.917Z,1010.84
2023-04-26T00:30:21.876Z,1010.91
2023-04-26T00:31:21.894Z,1010.91
2023-04-26T00:32:21.830Z,1010.89
2023-04-26T00:33:21.764Z,1010.92
2023-04-26T00:34:21.778Z,1010.92
2023-04-26T00:35:21.693Z,1010.95
2023-04-26T00:36:21.668Z,1010.98
2023-04-26T00:37:21.630Z,1010.94
2023-04-26T00:38:21.589Z,1010.90
2023-04-26T00:39:21.602Z,1010.89
2023-04-26T00:40:21.519Z,1010.89
2023-04-26T00:41:21.467Z,1010.89
2023-04-26T00:42:21.440Z,1010.86
2023-04-26T00:43:21.403Z,1010.90
2023-04-26T00:44:21.373Z,1010.95
2023-04-26T00:45:21.380Z,1010.92
2023-04-26T00:46:21.396Z,1010.90
2023-04-26T00:47:21.257Z,1010.92
2023-04-26T00:48:21.213Z,1010.94
2023-04-26T00:49:21.205Z,1010.95
2023-04-26T00:50:21.205Z,1010.96
2023-04-26T00:51:21.105Z,1010.95
2023-04-26T00:52:21.059Z,1010.93
2023-04-26T00:53:21.032Z,1010.97
2023-04-26T00:54:21.013Z,1010.99
2023-04-26T00:55:20.978Z,1010.95
2023-04-26T00:56:20.987Z,1010.94
2023-04-26T00:57:20.873Z,1011.00
2023-04-26T00:58:20.839Z,1010.98
2023-04-26T00:59:20.839Z,1010.99
2023-04-26T01:00:20.775Z,1011.05
2023-04-26T01:01:20.827Z,1011.03
2023-04-26T01:02:20.790Z,1010.99
2023-04-26T01:03:20.796Z,1011.03
2023-04-26T01:04:20.881Z,1011.05
2023-04-26T01:05:20.580Z,1011.03
2023-04-26T01:06:20.548Z,1011.05
2023-04-26T01:07:20.583Z,1011.03
2023-04-26T01:08:20.493Z,1011.03
2023-04-26T01:09:20.439Z,1011.09
2023-04-26T01:10:20.443Z,1011.10
2023-04-26T01:11:20.357Z,1011.10
2023-04-26T01:12:20.318Z,1011.08
2023-04-26T01:13:20.347Z,1011.08
2023-04-26T01:14:20.242Z,1011.11
2023-04-26T01:15:20.217Z,1011.15
2023-04-26T01:16:20.249Z,1011.09
2023-04-26T01:17:20.183Z,1011.07
2023-04-26T01:18:20.104Z,1011.10
2023-04-26T01:19:20.543Z,1011.10
2023-04-26T01:20:20.077Z,1011.11
2023-04-26T01:21:19.983Z,1011.09
2023-04-26T01:22:19.950Z,1011.13
2023-04-26T01:23:19.990Z,1011.15
2023-04-26T01:24:19.874Z,1011.13
2023-04-26T01:25:19.845Z,1011.13
2023-04-26T01:26:19.804Z,1011.14
2023-04-26T01:27:19.790Z,1011.15
2023-04-26T01:28:19.729Z,1011.15
2023-04-26T01:29:19.749Z,1011.18
2023-04-26T01:30:22.860Z,1011.16
2023-04-26T01:31:19.638Z,1011.17
2023-04-26T01:32:19.586Z,1011.16
2023-04-26T01:33:19.535Z,1011.17
2023-04-26T01:34:19.562Z,1011.16
2023-04-26T01:35:19.477Z,1011.23
2023-04-26T01:36:19.433Z,1011.22
2023-04-26T01:37:19.404Z,1011.18
2023-04-26T01:38:19.355Z,1011.22
2023-04-26T01:39:19.406Z,1011.25
2023-04-26T01:40:19.280Z,1011.21
2023-04-26T01:41:19.234Z,1011.23
2023-04-26T01:42:19.217Z,1011.19
2023-04-26T01:43:19.194Z,1011.24
2023-04-26T01:44:19.133Z,1011.26
2023-04-26T01:45:19.177Z,1011.24
2023-04-26T01:46:19.072Z,1011.27
2023-04-26T01:47:19.041Z,1011.28
2023-04-26T01:48:18.981Z,1011.25
2023-04-26T01:49:18.938Z,1011.22
2023-04-26T01:50:18.908Z,1011.26
2023-04-26T01:51:18.928Z,1011.24
2023-04-26T01:52:18.838Z,1011.26
2023-04-26T01:53:18.789Z,1011.23
2023-04-26T01:54:18.760Z,1011.27
2023-04-26T01:55:18.721Z,1011.25
2023-04-26T01:56:18.684Z,1011.29
2023-04-26T01:57:18.710Z,1011.24
2023-04-26T01:58:18.622Z,1011.25
2023-04-26T01:59:18.571Z,1011.26
2023-04-26T02:00:18.557Z,1011.23
2023-04-26T02:01:18.549Z,1011.28
2023-04-26T02:02:18.586Z,1011.25
2023-04-26T02:03:18.489Z,1011.23
2023-04-26T02:04:18.376Z,1011.29
2023-04-26T02:05:18.439Z,1011.22
2023-04-26T02:06:18.306Z,1011.32
2023-04-26T02:07:18.265Z,1011.25
2023-04-26T02:08:18.305Z,1011.30
2023-04-26T02:09:18.230Z,1011.27
2023-04-26T02:10:18.156Z,1011.27
2023-04-26T02:11:18.183Z,1011.30
2023-04-26T02:12:18.093Z,1011.28
2023-04-26T02:13:18.068Z,1011.27
2023-04-26T02:14:18.067Z,1011.26
2023-04-26T02:15:17.977Z,1011.28
2023-04-26T02:16:17.965Z,1011.25
2023-04-26T02:17:17.903Z,1011.28
2023-04-26T02:18:17.859Z,1011.26
2023-04-26T02:19:17.873Z,1011.25
2023-04-26T02:20:17.843Z,1011.25
2023-04-26T02:21:17.747Z,1011.28
2023-04-26T02:22:17.707Z,1011.24
2023-04-26T02:23:17.680Z,1011.24
2023-04-26T02:24:17.705Z,1011.23
2023-04-26T02:25:17.606Z,1011.20
2023-04-26T02:26:17.563Z,1011.23
2023-04-26T02:27:17.650Z,1011.20
2023-04-26T02:28:17.505Z,1011.21
2023-04-26T02:29:17.453Z,1011.21
2023-04-26T02:30:17.463Z,1011.20
2023-04-26T02:31:17.434Z,1011.29
2023-04-26T02:32:17.346Z,1011.27
2023-04-26T02:33:17.301Z,1011.26
2023-04-26T02:34:17.268Z,1011.26
2023-04-26T02:35:17.283Z,1011.21
2023-04-26T02:36:17.195Z,1011.20
2023-04-26T02:37:17.157Z,1011.21
2023-04-26T02:38:17.114Z,1011.20
2023-04-26T02:39:17.092Z,1011.17
2023-04-26T02:40:17.042Z,1011.21
2023-04-26T02:41:17.072Z,1011.18
2023-04-26T02:42:16.966Z,1011.17
2023-04-26T02:43:16.933Z,1011.19
2023-04-26T02:44:16.934Z,1011.22
2023-04-26T02:45:16.869Z,1011.18
2023-04-26T02:46:17.442Z,1011.16
2023-04-26T02:47:16.851Z,1011.20
2023-04-26T02:48:16.803Z,1011.18
2023-04-26T02:49:16.710Z,1011.14
2023-04-26T02:50:16.672Z,1011.15
2023-04-26T02:51:16.693Z,1011.17
2023-04-26T02:52:16.584Z,1011.20
2023-04-26T02:53:16.602Z,1011.23
2023-04-26T02:54:16.518Z,1011.16
2023-04-26T02:55:16.485Z,1011.17
2023-04-26T02:56:16.433Z,1011.17
2023-04-26T02:57:16.458Z,1011.19
2023-04-26T02:58:16.367Z,1011.19
2023-04-26T02:59:16.393Z,1011.16
2023-04-26T03:00:16.304Z,1011.20
2023-04-26T03:01:16.348Z,1011.17
2023-04-26T03:02:16.327Z,1011.19
2023-04-26T03:03:16.293Z,1011.19
2023-04-26T03:04:16.419Z,1011.21
2023-04-26T03:05:16.108Z,1011.19
2023-04-26T03:06:16.057Z,1011.23
2023-04-26T03:07:16.023Z,1011.21
2023-04-26T03:08:15.985Z,1011.18
2023-04-26T03:09:15.999Z,1011.21
2023-04-26T03:10:15.912Z,1011.21
2023-04-26T03:11:16.492Z,1011.22
2023-04-26T03:12:15.831Z,1011.18
2023-04-26T03:13:15.806Z,1011.21
2023-04-26T03:14:15.764Z,1011.21
2023-04-26T03:15:15.812Z,1011.25
2023-04-26T03:16:15.793Z,1011.19
2023-04-26T03:17:15.646Z,1011.24
2023-04-26T03:18:15.617Z,1011.21
2023-04-26T03:19:15.569Z,1011.26
2023-04-26T03:20:15.533Z,1011.23
2023-04-26T03:21:15.586Z,1011.24
2023-04-26T03:22:15.471Z,1011.31
2023-04-26T03:23:15.423Z,1011.25
2023-04-26T03:24:15.436Z,1011.30
2023-04-26T03:25:15.351Z,1011.28
2023-04-26T03:26:15.314Z,1011.29
2023-04-26T03:27:15.340Z,1011.27
2023-04-26T03:28:15.254Z,1011.27
2023-04-26T03:29:15.218Z,1011.25
2023-04-26T03:30:15.160Z,1011.29
2023-04-26T03:31:15.120Z,1011.32
2023-04-26T03:32:15.176Z,1011.29
2023-04-26T03:33:15.150Z,1011.27
2023-04-26T03:34:15.058Z,1011.27
2023-04-26T03:35:14.985Z,1011.27
2023-04-26T03:36:14.941Z,1011.26
2023-04-26T03:37:14.904Z,1011.30
2023-04-26T03:38:14.868Z,1011.28
2023-04-26T03:39:14.903Z,1011.27
2023-04-26T03:40:14.784Z,1011.29
2023-04-26T03:41:14.744Z,1011.31
2023-04-26T03:42:14.710Z,1011.34
2023-04-26T03:43:14.693Z,1011.39
2023-04-26T03:44:14.704Z,1011.36
2023-04-26T03:45:14.659Z,1011.33
2023-04-26T03:46:14.741Z,1011.35
2023-04-26T03:47:14.562Z,1011.37
2023-04-26T03:48:14.514Z,1011.35
2023-04-26T03:49:14.458Z,1011.37
2023-04-26T03:50:14.422Z,1011.36
2023-04-26T03:51:14.424Z,1011.36
2023-04-26T03:52:14.411Z,1011.38
2023-04-26T03:53:14.300Z,1011.34
2023-04-26T03:54:14.264Z,1011.36
2023-04-26T03:55:14.224Z,1011.40
2023-04-26T03:56:14.188Z,1011.38
2023-04-26T03:57:14.223Z,1011.38
2023-04-26T03:58:14.122Z,1011.39
2023-04-26T03:59:14.071Z,1011.36
2023-04-26T04:00:14.054Z,1011.39
2023-04-26T04:01:13.995Z,1011.44
2023-04-26T04:02:14.047Z,1011.46
2023-04-26T04:03:14.161Z,1011.45
2023-04-26T04:04:14.216Z,1011.49
2023-04-26T04:05:14.062Z,1011.47
2023-04-26T04:06:13.870Z,1011.48
2023-04-26T04:07:13.780Z,1011.47
2023-04-26T04:08:13.739Z,1011.55
2023-04-26T04:09:13.704Z,1011.52
2023-04-26T04:10:13.675Z,1011.50
2023-04-26T04:11:13.697Z,1011.54
2023-04-26T04:12:13.591Z,1011.51
2023-04-26T04:13:13.547Z,1011.52
2023-04-26T04:14:13.599Z,1011.53
2023-04-26T04:15:13.467Z,1011.55
2023-04-26T04:16:13.456Z,1011.55
2023-04-26T04:17:13.453Z,1011.57
2023-04-26T04:18:13.474Z,1011.56
2023-04-26T04:19:13.374Z,1011.60
2023-04-26T04:20:13.284Z,1011.59
2023-04-26T04:21:13.288Z,1011.63
2023-04-26T04:22:13.267Z,1011.64
2023-04-26T04:23:13.177Z,1011.66
2023-04-26T04:24:13.139Z,1011.66
2023-04-26T04:25:13.106Z,1011.65
2023-04-26T04:26:13.066Z,1011.68
2023-04-26T04:27:13.025Z,1011.67
2023-04-26T04:28:13.048Z,1011.64
2023-04-26T04:29:13.004Z,1011.66
2023-04-26T04:30:12.919Z,1011.67
2023-04-26T04:31:13.086Z,1011.68
2023-04-26T04:32:12.837Z,1011.67
2023-04-26T04:33:12.805Z,1011.67
2023-04-26T04:34:12.832Z,1011.67
2023-04-26T04:35:12.724Z,1011.72
2023-04-26T04:36:12.698Z,1011.76
2023-04-26T04:37:12.658Z,1011.79
2023-04-26T04:38:12.621Z,1011.82
2023-04-26T04:39:12.657Z,1011.80
2023-04-26T04:40:12.571Z,1011.78
2023-04-26T04:41:12.531Z,1011.79
2023-04-26T04:42:12.469Z,1011.77
2023-04-26T04:43:12.512Z,1011.83
2023-04-26T04:44:12.471Z,1011.81
2023-04-26T04:45:12.375Z,1011.82
2023-04-26T04:46:12.941Z,1011.87
2023-04-26T04:47:12.320Z,1011.85
2023-04-26T04:48:12.304Z,1011.86
2023-04-26T04:49:12.229Z,1011.85
2023-04-26T04:50:12.264Z,1011.85
2023-04-26T04:51:12.165Z,1011.86
2023-04-26T04:52:12.127Z,1011.89
2023-04-26T04:53:12.101Z,1011.91
2023-04-26T04:54:12.053Z,1011.89
2023-04-26T04:55:12.019Z,1011.90
2023-04-26T04:56:12.029Z,1011.89
2023-04-26T04:57:11.941Z,1011.89
2023-04-26T04:58:11.915Z,1011.90
2023-04-26T04:59:11.881Z,1011.91
2023-04-26T05:00:11.832Z,1011.93
2023-04-26T05:01:11.864Z,1011.90
2023-04-26T05:02:11.797Z,1011.91
2023-04-26T05:03:11.943Z,1011.91
2023-04-26T05:04:11.870Z,1011.91
2023-04-26T05:05:11.751Z,1011.93
2023-04-26T05:06:11.620Z,1011.91
2023-04-26T05:07:11.643Z,1011.87
2023-04-26T05:08:11.558Z,1011.86
2023-04-26T05:09:11.507Z,1011.91
2023-04-26T05:10:11.483Z,1011.90
2023-04-26T05:11:11.445Z,1011.93
2023-04-26T05:12:11.474Z,1011.91
2023-04-26T05:13:11.368Z,1011.94
2023-04-26T05:14:11.327Z,1011.93
2023-04-26T05:15:11.302Z,1011.97
2023-04-26T05:16:11.311Z,1011.99
2023-04-26T05:17:11.226Z,1011.99
2023-04-26T05:18:11.338Z,1011.97
2023-04-26T05:19:11.160Z,1011.99
2023-04-26T05:20:11.179Z,1011.96
2023-04-26T05:21:11.116Z,1011.99
2023-04-26T05:22:11.051Z,1012.00
2023-04-26T05:23:11.064Z,1012.00
2023-04-26T05:24:11.038Z,1012.01
2023-04-26T05:25:10.959Z,1012.01
2023-04-26T05:26:10.911Z,1012.03
2023-04-26T05:27:10.872Z,1012.05
2023-04-26T05:28:10.860Z,1012.04
2023-04-26T05:29:10.848Z,1012.10
2023-04-26T05:30:10.760Z,1012.08
2023-04-26T05:31:11.532Z,1012.10
2023-04-26T05:32:10.877Z,1012.13
2023-04-26T05:33:10.689Z,1012.18
2023-04-26T05:34:10.765Z,1012.11
2023-04-26T05:35:10.594Z,1012.21
2023-04-26T05:36:10.559Z,1012.18
2023-04-26T05:37:10.500Z,1012.21
2023-04-26T05:38:10.546Z,1012.20
2023-04-26T05:39:10.443Z,1012.25
2023-04-26T05:40:10.487Z,1012.23
2023-04-26T05:41:10.362Z,1012.26
2023-04-26T05:42:10.331Z,1012.30
2023-04-26T05:43:10.292Z,1012.30
2023-04-26T05:44:10.274Z,1012.33
2023-04-26T05:45:10.228Z,1012.32
2023-04-26T05:46:10.281Z,1012.30
2023-04-26T05:47:10.182Z,1012.36
2023-04-26T05:48:10.127Z,1012.35
2023-04-26T05:49:10.072Z,1012.39
2023-04-26T05:50:10.093Z,1012.36
2023-04-26T05:51:10.091Z,1012.38
2023-04-26T05:52:09.969Z,1012.42
2023-04-26T05:53:09.932Z,1012.45
2023-04-26T05:54:09.895Z,1012.44
2023-04-26T05:55:09.866Z,1012.48
2023-04-26T05:56:09.888Z,1012.47
2023-04-26T05:57:09.826Z,1012.48
2023-04-26T05:58:09.746Z,1012.46
2023-04-26T05:59:09.710Z,1012.45
2023-04-26T06:00:09.673Z,1012.45
2023-04-26T06:01:09.640Z,1012.48
2023-04-26T06:02:09.695Z,1012.41
2023-04-26T06:03:09.774Z,1012.45
2023-04-26T06:04:09.952Z,1012.40
2023-04-26T06:05:09.639Z,1012.41
2023-04-26T06:06:10.406Z,1012.32
2023-04-26T06:07:11.077Z,1012.35
2023-04-26T06:08:09.417Z,1012.33
2023-04-26T06:09:09.354Z,1012.35
2023-04-26T06:10:09.330Z,1012.30
2023-04-26T06:11:09.281Z,1012.32
2023-04-26T06:12:09.289Z,1012.30
2023-04-26T06:13:09.204Z,1012.33
2023-04-26T06:14:19.750Z,1012.40
2023-04-26T06:15:09.134Z,1012.41
2023-04-26T06:16:09.098Z,1012.38
2023-04-26T06:17:09.094Z,1012.38
2023-04-26T06:18:09.147Z,1012.35
2023-04-26T06:19:08.988Z,1012.38
2023-04-26T06:20:09.911Z,1012.39
2023-04-26T06:21:08.911Z,1012.44
2023-04-26T06:22:08.903Z,1012.41
2023-04-26T06:23:08.852Z,1012.42
2023-04-26T06:24:08.893Z,1012.42
2023-04-26T06:25:08.780Z,1012.45
2023-04-26T06:26:08.744Z,1012.46
2023-04-26T06:27:09.509Z,1012.44
2023-04-26T06:28:08.664Z,1012.42
2023-04-26T06:29:08.631Z,1012.42
2023-04-26T06:30:08.680Z,1012.45
2023-04-26T06:31:08.607Z,1012.43
2023-04-26T06:32:08.533Z,1012.44
2023-04-26T06:33:08.551Z,1012.42
2023-04-26T06:34:08.673Z,1012.43
2023-04-26T06:35:08.458Z,1012.45
2023-04-26T06:36:08.450Z,1012.43
2023-04-26T06:37:08.343Z,1012.46
2023-04-26T06:38:08.315Z,1012.45
2023-04-26T06:39:08.272Z,1012.46
2023-04-26T06:40:08.300Z,1012.50
2023-04-26T06:41:08.213Z,1012.49
2023-04-26T06:42:08.233Z,1012.53
2023-04-26T06:43:08.138Z,1012.49
2023-04-26T06:44:08.116Z,1012.50
2023-04-26T06:45:08.076Z,1012.49
2023-04-26T06:46:08.116Z,1012.48
2023-04-26T06:47:08.028Z,1012.46
2023-04-26T06:48:08.075Z,1012.54
2023-04-26T06:49:07.929Z,1012.50
2023-04-26T06:50:07.908Z,1012.51
2023-04-26T06:51:07.909Z,1012.54
2023-04-26T06:52:09.444Z,1012.56
2023-04-26T06:53:07.796Z,1012.55
2023-04-26T06:54:07.806Z,1012.53
2023-04-26T06:55:07.714Z,1012.54
2023-04-26T06:56:07.682Z,1012.58
2023-04-26T06:57:07.673Z,1012.53
2023-04-26T06:58:07.607Z,1012.52
2023-04-26T06:59:07.624Z,1012.59
2023-04-26T07:00:07.617Z,1012.60
2023-04-26T07:01:07.520Z,1012.59
2023-04-26T07:02:07.527Z,1012.60
2023-04-26T07:03:07.571Z,1012.62
2023-04-26T07:04:07.858Z,1012.67
2023-04-26T07:05:07.631Z,1012.65
2023-04-26T07:06:07.917Z,1012.61
2023-04-26T07:07:07.399Z,1012.69
2023-04-26T07:08:07.273Z,1012.64
2023-04-26T07:09:07.245Z,1012.66
2023-04-26T07:10:07.204Z,1012.66
2023-04-26T07:11:07.215Z,1012.69
2023-04-26T07:12:07.135Z,1012.74
2023-04-26T07:13:09.392Z,1012.70
2023-04-26T07:14:07.064Z,1012.72
2023-04-26T07:15:07.019Z,1012.71
2023-04-26T07:16:07.085Z,1012.72
2023-04-26T07:17:06.953Z,1012.70
2023-04-26T07:18:07.580Z,1012.72
2023-04-26T07:19:06.898Z,1012.78
2023-04-26T07:20:06.849Z,1012.71
2023-04-26T07:21:06.895Z,1012.67
2023-04-26T07:22:06.780Z,1012.75
2023-04-26T07:23:06.847Z,1012.80
2023-04-26T07:24:06.715Z,1012.80
2023-04-26T07:25:06.750Z,1012.77
2023-04-26T07:26:06.641Z,1012.75
2023-04-26T07:27:06.804Z,1012.75
2023-04-26T07:28:06.585Z,1012.83
2023-04-26T07:29:06.545Z,1012.79
2023-04-26T07:30:06.522Z,1012.76
2023-04-26T07:31:08.794Z,1012.78
2023-04-26T07:32:06.500Z,1012.76
2023-04-26T07:33:06.590Z,1012.84
2023-04-26T07:34:06.385Z,1012.81
2023-04-26T07:35:06.352Z,1012.80
2023-04-26T07:36:06.334Z,1012.77
2023-04-26T07:37:06.365Z,1012.82
2023-04-26T07:38:06.266Z,1012.88
2023-04-26T07:39:06.368Z,1012.86
2023-04-26T07:40:06.219Z,1012.87
2023-04-26T07:41:06.157Z,1012.87
2023-04-26T07:42:06.132Z,1012.94
2023-04-26T07:43:06.090Z,1012.90
2023-04-26T07:44:06.056Z,1012.85
2023-04-26T07:45:06.084Z,1012.92
2023-04-26T07:46:06.045Z,1012.89
2023-04-26T07:47:05.967Z,1012.90
2023-04-26T07:48:05.986Z,1012.90
2023-04-26T07:49:05.880Z,1012.92
2023-04-26T07:50:05.872Z,1012.91
2023-04-26T07:51:05.883Z,1012.87
2023-04-26T07:52:05.837Z,1012.81
2023-04-26T07:53:05.762Z,1012.84
2023-04-26T07:54:05.791Z,1012.79
2023-04-26T07:55:05.692Z,1012.90
2023-04-26T07:56:05.656Z,1012.83
2023-04-26T07:57:05.632Z,1012.93
2023-04-26T07:58:05.659Z,1012.95
2023-04-26T07:59:05.572Z,1012.93
2023-04-26T08:00:05.583Z,1012.89
2023-04-26T08:01:05.503Z,1012.87
2023-04-26T08:02:05.482Z,1012.92
2023-04-26T08:03:05.554Z,1012.93
2023-04-26T08:04:05.744Z,1012.93
2023-04-26T08:05:05.693Z,1013.00
2023-04-26T08:06:05.724Z,1013.00
2023-04-26T08:07:05.308Z,1013.02
2023-04-26T08:08:05.267Z,1012.96
2023-04-26T08:09:05.262Z,1012.94
2023-04-26T08:10:05.214Z,1012.99
2023-04-26T08:11:05.286Z,1012.95
2023-04-26T08:12:05.221Z,1013.02
2023-04-26T08:13:05.107Z,1012.98
2023-04-26T08:14:05.091Z,1013.06
2023-04-26T08:15:05.091Z,1013.04
2023-04-26T08:16:05.018Z,1013.06
2023-04-26T08:17:05.044Z,1013.05
2023-04-26T08:18:05.031Z,1013.03
2023-04-26T08:19:04.916Z,1013.05
2023-04-26T08:20:04.961Z,1013.09
2023-04-26T08:21:04.863Z,1013.06
2023-04-26T08:22:04.826Z,1013.07
2023-04-26T08:23:05.547Z,1013.07
2023-04-26T08:24:04.758Z,1013.05
2023-04-26T08:25:04.725Z,1013.04
2023-04-26T08:26:04.749Z,1013.06
2023-04-26T08:27:04.665Z,1013.09
2023-04-26T08:28:04.634Z,1013.08
2023-04-26T08:29:04.599Z,1013.07
2023-04-26T08:30:04.573Z,1013.12
2023-04-26T08:31:04.656Z,1013.04
2023-04-26T08:32:04.502Z,1013.03
2023-04-26T08:33:04.556Z,1013.08
2023-04-26T08:34:04.448Z,1013.05
2023-04-26T08:35:04.440Z,1013.04
2023-04-26T08:36:04.380Z,1013.00
2023-04-26T08:37:04.413Z,1013.01
2023-04-26T08:38:04.319Z,1013.01
2023-04-26T08:39:04.270Z,1013.04
2023-04-26T08:40:04.248Z,1013.01
2023-04-26T08:41:04.205Z,1013.04
2023-04-26T08:42:04.218Z,1013.04
2023-04-26T08:43:04.281Z,1013.07
2023-04-26T08:44:04.120Z,1013.00
2023-04-26T08:45:04.124Z,1013.00
2023-04-26T08:46:04.082Z,1013.05
2023-04-26T08:47:04.039Z,1012.98
2023-04-26T08:48:04.803Z,1013.03
2023-04-26T08:49:04.011Z,1013.00
2023-04-26T08:50:03.919Z,1013.09
2023-04-26T08:51:03.884Z,1013.01
2023-04-26T08:52:03.860Z,1013.06
2023-04-26T08:53:03.818Z,1013.08
2023-04-26T08:54:04.830Z,1013.03
2023-04-26T08:55:03.819Z,1013.06
2023-04-26T08:56:03.734Z,1013.05
2023-04-26T08:57:03.703Z,1013.15
2023-04-26T08:58:03.667Z,1013.03
2023-04-26T08:59:03.793Z,1013.02
2023-04-26T09:00:03.611Z,1013.01
2023-04-26T09:01:03.630Z,1013.00
2023-04-26T09:02:03.571Z,1012.96
2023-04-26T09:03:03.722Z,1013.02
2023-04-26T09:04:03.580Z,1013.00
2023-04-26T09:05:03.606Z,1013.00
2023-04-26T09:06:04.464Z,1013.00
2023-04-26T09:07:03.457Z,1013.03
2023-04-26T09:08:03.349Z,1013.09
2023-04-26T09:09:03.320Z,1012.99
2023-04-26T09:10:03.273Z,1013.08
2023-04-26T09:11:03.264Z,1013.00
2023-04-26T09:12:03.226Z,1013.04
2023-04-26T09:13:03.226Z,1013.01
2023-04-26T09:14:03.142Z,1013.04
2023-04-26T09:15:03.161Z,1013.03
2023-04-26T09:16:05.016Z,1013.01
2023-04-26T09:17:03.044Z,1013.01
2023-04-26T09:18:03.056Z,1012.94
2023-04-26T09:19:03.056Z,1013.08
2023-04-26T09:20:03.679Z,1013.03
2023-04-26T09:21:02.927Z,1013.11
2023-04-26T09:22:02.885Z,1013.05
2023-04-26T09:23:02.898Z,1012.95
2023-04-26T09:24:02.823Z,1012.92
2023-04-26T09:25:02.828Z,1013.06
2023-04-26T09:26:02.754Z,1013.03
2023-04-26T09:27:02.728Z,1013.06
2023-04-26T09:28:02.702Z,1013.06
2023-04-26T09:29:02.706Z,1013.03
2023-04-26T09:30:02.623Z,1013.03
2023-04-26T09:31:02.697Z,1013.00
2023-04-26T09:32:02.628Z,1012.99
2023-04-26T09:33:02.591Z,1012.92
2023-04-26T09:34:02.482Z,1012.95
2023-04-26T09:35:02.450Z,1013.00
2023-04-26T09:36:02.431Z,1013.01
2023-04-26T09:37:02.450Z,1013.02
2023-04-26T09:38:06.509Z,1012.99
2023-04-26T09:39:02.337Z,1012.96
2023-04-26T09:40:02.303Z,1012.96
2023-04-26T09:41:02.262Z,1012.88
2023-04-26T09:42:02.222Z,1012.92
2023-04-26T09:43:02.273Z,1012.94
2023-04-26T09:44:02.162Z,1013.01
2023-04-26T09:45:02.146Z,1013.00
2023-04-26T09:46:02.104Z,1013.03
2023-04-26T09:47:02.274Z,1012.97
2023-04-26T09:48:02.046Z,1012.93
2023-04-26T09:49:02.070Z,1012.93
2023-04-26T09:50:01.997Z,1012.89
2023-04-26T09:51:01.929Z,1012.89
2023-04-26T09:52:01.930Z,1012.86
2023-04-26T09:53:01.870Z,1012.90
2023-04-26T09:54:01.850Z,1012.97
2023-04-26T09:55:01.881Z,1012.87
2023-04-26T09:56:01.780Z,1012.87
2023-04-26T09:57:01.777Z,1012.92
2023-04-26T09:58:01.706Z,1012.92
2023-04-26T09:59:01.676Z,1012.90
2023-04-26T10:00:01.650Z,1012.92
2023-04-26T10:01:01.706Z,1012.95
2023-04-26T10:02:01.582Z,1013.00
2023-04-26T10:03:01.679Z,1013.01
2023-04-26T10:04:01.808Z,1013.01
2023-04-26T10:05:01.577Z,1013.00
2023-04-26T10:06:01.456Z,1012.92
2023-04-26T10:07:01.478Z,1013.00
2023-04-26T10:08:01.385Z,1012.97
2023-04-26T10:09:01.374Z,1012.94
2023-04-26T10:10:01.353Z,1012.95
2023-04-26T10:11:01.305Z,1012.99
2023-04-26T10:12:01.273Z,1012.96
2023-04-26T10:13:01.286Z,1013.05
2023-04-26T10:14:01.208Z,1012.94
2023-04-26T10:15:01.296Z,1012.95
2023-04-26T10:16:01.329Z,1012.93
2023-04-26T10:17:01.136Z,1012.93
2023-04-26T10:18:01.182Z,1012.92
2023-04-26T10:19:01.094Z,1012.89
2023-04-26T10:20:01.047Z,1012.88
2023-04-26T10:21:01.046Z,1012.87
2023-04-26T10:22:01.051Z,1012.90
2023-04-26T10:23:00.928Z,1012.88
2023-04-26T10:24:00.902Z,1012.75
2023-04-26T10:25:00.863Z,1012.83
2023-04-26T10:26:00.918Z,1012.81
2023-04-26T10:27:00.837Z,1012.77
2023-04-26T10:28:00.768Z,1012.78
2023-04-26T10:29:02.539Z,1012.82
2023-04-26T10:30:00.703Z,1012.89
2023-04-26T10:31:00.755Z,1012.88
2023-04-26T10:32:00.675Z,1012.87
2023-04-26T10:33:00.669Z,1012.88
2023-04-26T10:34:00.578Z,1012.91
2023-04-26T10:35:00.570Z,1012.89
2023-04-26T10:36:00.618Z,1012.88
2023-04-26T10:37:00.485Z,1012.90
2023-04-26T10:38:00.539Z,1012.93
2023-04-26T10:39:00.431Z,1012.89
2023-04-26T10:40:00.396Z,1012.90
2023-04-26T10:41:00.360Z,1012.89
2023-04-26T10:42:00.386Z,1012.93
2023-04-26T10:43:00.293Z,1012.93
2023-04-26T10:44:00.266Z,1012.96
2023-04-26T10:45:00.304Z,1012.93
2023-04-26T10:46:00.241Z,1013.02
2023-04-26T10:47:00.242Z,1012.93
2023-04-26T10:48:00.191Z,1013.00
2023-04-26T10:49:00.138Z,1012.93
2023-04-26T10:50:00.073Z,1013.25
2023-04-26T10:51:00.036Z,1013.02
2023-04-26T10:52:00.060Z,1012.99
2023-04-26T10:53:01.013Z,1012.97
2023-04-26T10:53:59.950Z,1012.95
2023-04-26T10:54:59.963Z,1012.95
2023-04-26T10:55:59.872Z,1012.95
2023-04-26T10:56:59.854Z,1012.96
2023-04-26T10:57:59.868Z,1013.02
2023-04-26T10:58:59.788Z,1012.94
2023-04-26T10:59:59.753Z,1012.95
2023-04-26T11:00:59.732Z,1012.98
2023-04-26T11:01:59.705Z,1013.02
2023-04-26T11:03:02.549Z,1013.06
2023-04-26T11:03:59.926Z,1013.03
2023-04-26T11:04:59.643Z,1013.08
2023-04-26T11:05:59.557Z,1013.05
2023-04-26T11:06:59.638Z,1013.07
2023-04-26T11:07:59.489Z,1013.05
2023-04-26T11:08:59.463Z,1013.05
2023-04-26T11:09:59.492Z,1013.08
2023-04-26T11:10:59.405Z,1013.02
2023-04-26T11:11:59.376Z,1013.07
2023-04-26T11:12:59.338Z,1013.08
2023-04-26T11:13:59.368Z,1013.15
2023-04-26T11:14:59.273Z,1013.09
2023-04-26T11:15:59.293Z,1013.16
2023-04-26T11:16:59.222Z,1013.14
2023-04-26T11:17:59.186Z,1013.13
2023-04-26T11:18:59.208Z,1013.06
2023-04-26T11:19:59.106Z,1013.14
2023-04-26T11:20:59.084Z,1013.04
2023-04-26T11:21:59.047Z,1013.07
2023-04-26T11:22:59.080Z,1013.12
2023-04-26T11:23:59.068Z,1013.10
2023-04-26T11:24:58.959Z,1013.13
2023-04-26T11:25:58.940Z,1013.11
2023-04-26T11:26:58.906Z,1013.09
2023-04-26T11:27:58.886Z,1013.10
2023-04-26T11:28:58.842Z,1013.10
2023-04-26T11:29:58.858Z,1013.09
2023-04-26T11:30:58.776Z,1013.10
2023-04-26T11:31:58.877Z,1013.08
2023-04-26T11:32:58.773Z,1013.09
2023-04-26T11:33:58.676Z,1013.14
2023-04-26T11:34:58.646Z,1013.09
2023-04-26T11:35:58.715Z,1013.08
2023-04-26T11:36:58.595Z,1013.08
2023-04-26T11:37:58.541Z,1013.09
2023-04-26T11:38:58.516Z,1013.07
2023-04-26T11:39:58.496Z,1013.13
2023-04-26T11:40:58.644Z,1013.04
2023-04-26T11:43:30.006Z,1013.12
2023-04-26T11:44:29.944Z,1013.16
2023-04-26T11:45:29.914Z,1013.06
2023-04-26T11:46:29.928Z,1013.09
2023-04-26T11:47:29.901Z,1013.07
2023-04-26T11:48:29.841Z,1013.07
2023-04-26T11:49:29.788Z,1013.08
2023-04-26T11:50:29.778Z,1013.04
2023-04-26T11:51:30.640Z,1013.13
2023-04-26T11:52:29.706Z,1013.10
2023-04-26T11:53:30.173Z,1013.17
2023-04-26T11:54:29.628Z,1013.15
2023-04-26T11:55:29.615Z,1013.12
2023-04-26T11:56:29.571Z,1013.11
2023-04-26T11:57:29.536Z,1013.13
2023-04-26T11:58:29.510Z,1013.11
2023-04-26T11:59:29.530Z,1013.15
2023-04-26T12:00:29.466Z,1013.19
2023-04-26T12:01:29.440Z,1013.12
2023-04-26T12:02:29.453Z,1013.21
2023-04-26T12:03:29.503Z,1013.21
2023-04-26T12:04:30.145Z,1013.17
2023-04-26T12:05:29.392Z,1013.29
2023-04-26T12:06:29.262Z,1013.28